sensor_id;sensor_type;location;lat;lon;timestamp;temperature;humidity
28087;DHT22;15392;48.912;8.380;2024-01-30T00:02:17;9.00;56.00
28087;DHT22;15392;48.912;8.380;2024-01-30T00:05:03;9.00;56.00
28087;DHT22;15392;48.912;8.380;2024-01-30T00:07:50;9.00;56.00
28087;DHT22;15392;48.912;8.380;2024-01-30T00:10:36;9.00;56.00
28087;DHT22;15392;48.912;8.380;2024-01-30T00:13:22;9.00;56.00
28087;DHT22;15392;48.912;8.380;2024-01-30T00:16:08;8.90;55.90
28087;DHT22;15392;48.912;8.380;2024-01-30T00:18:55;8.90;55.90
28087;DHT22;15392;48.912;8.380;2024-01-30T00:21:41;8.90;55.90
28087;DHT22;15392;48.912;8.380;2024-01-30T00:24:27;8.90;55.90
28087;DHT22;15392;48.912;8.380;2024-01-30T00:27:13;8.90;55.90
28087;DHT22;15392;48.912;8.380;2024-01-30T00:29:59;8.90;55.90
28087;DHT22;15392;48.912;8.380;2024-01-30T00:32:45;8.80;55.90
28087;DHT22;15392;48.912;8.380;2024-01-30T00:35:31;8.80;56.00
28087;DHT22;15392;48.912;8.380;2024-01-30T00:38:17;8.80;56.00
28087;DHT22;15392;48.912;8.380;2024-01-30T00:41:03;8.80;56.00
28087;DHT22;15392;48.912;8.380;2024-01-30T00:43:49;8.80;56.00
28087;DHT22;15392;48.912;8.380;2024-01-30T00:46:35;8.80;56.00
28087;DHT22;15392;48.912;8.380;2024-01-30T00:49:21;8.80;56.10
28087;DHT22;15392;48.912;8.380;2024-01-30T00:52:07;8.70;56.00
28087;DHT22;15392;48.912;8.380;2024-01-30T00:54:53;8.70;56.00
28087;DHT22;15392;48.912;8.380;2024-01-30T00:57:40;8.70;56.00
28087;DHT22;15392;48.912;8.380;2024-01-30T01:00:26;8.70;56.00
28087;DHT22;15392;48.912;8.380;2024-01-30T01:03:14;8.70;56.00
28087;DHT22;15392;48.912;8.380;2024-01-30T01:06:01;8.70;56.00
28087;DHT22;15392;48.912;8.380;2024-01-30T01:08:47;8.70;56.00
28087;DHT22;15392;48.912;8.380;2024-01-30T01:11:33;8.70;56.00
28087;DHT22;15392;48.912;8.380;2024-01-30T01:14:18;8.70;56.00
28087;DHT22;15392;48.912;8.380;2024-01-30T01:17:04;8.60;56.00
28087;DHT22;15392;48.912;8.380;2024-01-30T01:19:50;8.60;56.00
28087;DHT22;15392;48.912;8.380;2024-01-30T01:22:37;8.60;56.10
28087;DHT22;15392;48.912;8.380;2024-01-30T01:25:27;8.60;56.20
28087;DHT22;15392;48.912;8.380;2024-01-30T01:28:13;8.60;56.20
28087;DHT22;15392;48.912;8.380;2024-01-30T01:30:59;8.60;56.40
28087;DHT22;15392;48.912;8.380;2024-01-30T01:33:50;8.60;56.50
28087;DHT22;15392;48.912;8.380;2024-01-30T01:36:36;8.60;56.60
28087;DHT22;15392;48.912;8.380;2024-01-30T01:39:22;8.60;56.70
28087;DHT22;15392;48.912;8.380;2024-01-30T01:42:09;8.60;56.70
28087;DHT22;15392;48.912;8.380;2024-01-30T01:44:55;8.60;56.80
28087;DHT22;15392;48.912;8.380;2024-01-30T01:47:41;8.60;56.80
28087;DHT22;15392;48.912;8.380;2024-01-30T01:50:28;8.60;56.80
28087;DHT22;15392;48.912;8.380;2024-01-30T01:53:15;8.60;56.80
28087;DHT22;15392;48.912;8.380;2024-01-30T01:56:02;8.60;56.80
28087;DHT22;15392;48.912;8.380;2024-01-30T01:58:49;8.60;56.70
28087;DHT22;15392;48.912;8.380;2024-01-30T02:01:37;8.60;56.70
28087;DHT22;15392;48.912;8.380;2024-01-30T02:04:24;8.60;56.60
28087;DHT22;15392;48.912;8.380;2024-01-30T02:07:10;8.60;56.60
28087;DHT22;15392;48.912;8.380;2024-01-30T02:09:56;8.60;56.50
28087;DHT22;15392;48.912;8.380;2024-01-30T02:12:42;8.70;56.50
28087;DHT22;15392;48.912;8.380;2024-01-30T02:15:29;8.60;56.40
28087;DHT22;15392;48.912;8.380;2024-01-30T02:18:15;8.60;56.40
28087;DHT22;15392;48.912;8.380;2024-01-30T02:21:04;8.60;56.40
28087;DHT22;15392;48.912;8.380;2024-01-30T02:23:51;8.60;56.40
28087;DHT22;15392;48.912;8.380;2024-01-30T02:26:38;8.60;56.30
28087;DHT22;15392;48.912;8.380;2024-01-30T02:29:24;8.60;56.30
28087;DHT22;15392;48.912;8.380;2024-01-30T02:32:11;8.60;56.30
28087;DHT22;15392;48.912;8.380;2024-01-30T02:34:57;8.60;56.30
28087;DHT22;15392;48.912;8.380;2024-01-30T02:37:43;8.60;56.30
28087;DHT22;15392;48.912;8.380;2024-01-30T02:40:29;8.60;56.30
28087;DHT22;15392;48.912;8.380;2024-01-30T02:43:16;8.60;56.30
28087;DHT22;15392;48.912;8.380;2024-01-30T02:46:02;8.60;56.30
28087;DHT22;15392;48.912;8.380;2024-01-30T02:48:48;8.60;56.30
28087;DHT22;15392;48.912;8.380;2024-01-30T02:51:34;8.50;56.30
28087;DHT22;15392;48.912;8.380;2024-01-30T02:54:20;8.60;56.30
28087;DHT22;15392;48.912;8.380;2024-01-30T02:57:06;8.50;56.20
28087;DHT22;15392;48.912;8.380;2024-01-30T02:59:52;8.60;56.30
28087;DHT22;15392;48.912;8.380;2024-01-30T03:02:38;8.60;56.30
28087;DHT22;15392;48.912;8.380;2024-01-30T03:05:25;8.50;56.20
28087;DHT22;15392;48.912;8.380;2024-01-30T03:08:11;8.50;56.20
28087;DHT22;15392;48.912;8.380;2024-01-30T03:10:57;8.50;56.20
28087;DHT22;15392;48.912;8.380;2024-01-30T03:13:43;8.50;56.20
28087;DHT22;15392;48.912;8.380;2024-01-30T03:16:29;8.50;56.20
28087;DHT22;15392;48.912;8.380;2024-01-30T03:19:15;8.50;56.20
28087;DHT22;15392;48.912;8.380;2024-01-30T03:22:01;8.50;56.20
28087;DHT22;15392;48.912;8.380;2024-01-30T03:24:47;8.50;56.10
28087;DHT22;15392;48.912;8.380;2024-01-30T03:27:33;8.40;56.10
28087;DHT22;15392;48.912;8.380;2024-01-30T03:30:19;8.40;56.00
28087;DHT22;15392;48.912;8.380;2024-01-30T03:33:05;8.40;56.00
28087;DHT22;15392;48.912;8.380;2024-01-30T03:35:51;8.40;56.00
28087;DHT22;15392;48.912;8.380;2024-01-30T03:38:37;8.40;55.90
28087;DHT22;15392;48.912;8.380;2024-01-30T03:41:23;8.30;55.80
28087;DHT22;15392;48.912;8.380;2024-01-30T03:44:10;8.30;55.90
28087;DHT22;15392;48.912;8.380;2024-01-30T03:46:56;8.30;56.00
28087;DHT22;15392;48.912;8.380;2024-01-30T03:49:42;8.30;56.00
28087;DHT22;15392;48.912;8.380;2024-01-30T03:52:28;8.30;56.00
28087;DHT22;15392;48.912;8.380;2024-01-30T03:55:14;8.30;56.10
28087;DHT22;15392;48.912;8.380;2024-01-30T03:58:00;8.20;56.00
28087;DHT22;15392;48.912;8.380;2024-01-30T04:00:46;8.20;56.00
28087;DHT22;15392;48.912;8.380;2024-01-30T04:03:32;8.20;56.00
28087;DHT22;15392;48.912;8.380;2024-01-30T04:06:19;8.20;56.10
28087;DHT22;15392;48.912;8.380;2024-01-30T04:09:05;8.20;56.20
28087;DHT22;15392;48.912;8.380;2024-01-30T04:11:51;8.20;56.40
28087;DHT22;15392;48.912;8.380;2024-01-30T04:14:38;8.20;56.50
28087;DHT22;15392;48.912;8.380;2024-01-30T04:17:25;8.20;56.60
28087;DHT22;15392;48.912;8.380;2024-01-30T04:20:17;8.20;56.60
28087;DHT22;15392;48.912;8.380;2024-01-30T04:23:03;8.20;56.60
28087;DHT22;15392;48.912;8.380;2024-01-30T04:25:49;8.10;56.40
28087;DHT22;15392;48.912;8.380;2024-01-30T04:28:35;8.10;56.40
28087;DHT22;15392;48.912;8.380;2024-01-30T04:31:21;8.20;56.40
28087;DHT22;15392;48.912;8.380;2024-01-30T04:34:07;8.20;56.50
28087;DHT22;15392;48.912;8.380;2024-01-30T04:36:53;8.20;56.40
28087;DHT22;15392;48.912;8.380;2024-01-30T04:39:39;8.20;56.60
28087;DHT22;15392;48.912;8.380;2024-01-30T04:42:25;8.10;56.50
28087;DHT22;15392;48.912;8.380;2024-01-30T04:45:12;8.20;56.60
28087;DHT22;15392;48.912;8.380;2024-01-30T04:47:58;8.10;56.60
28087;DHT22;15392;48.912;8.380;2024-01-30T04:50:44;8.20;56.80
28087;DHT22;15392;48.912;8.380;2024-01-30T04:53:30;8.20;56.60
28087;DHT22;15392;48.912;8.380;2024-01-30T04:56:16;8.20;56.50
28087;DHT22;15392;48.912;8.380;2024-01-30T04:59:03;8.20;56.60
28087;DHT22;15392;48.912;8.380;2024-01-30T05:01:49;8.20;56.50
28087;DHT22;15392;48.912;8.380;2024-01-30T05:04:35;8.20;56.50
28087;DHT22;15392;48.912;8.380;2024-01-30T05:07:22;8.20;56.60
28087;DHT22;15392;48.912;8.380;2024-01-30T05:10:08;8.20;56.50
28087;DHT22;15392;48.912;8.380;2024-01-30T05:12:54;8.20;56.50
28087;DHT22;15392;48.912;8.380;2024-01-30T05:15:40;8.20;56.50
28087;DHT22;15392;48.912;8.380;2024-01-30T05:18:26;8.20;56.40
28087;DHT22;15392;48.912;8.380;2024-01-30T05:21:12;8.20;56.40
28087;DHT22;15392;48.912;8.380;2024-01-30T05:23:58;8.20;56.30
28087;DHT22;15392;48.912;8.380;2024-01-30T05:26:44;8.20;56.30
28087;DHT22;15392;48.912;8.380;2024-01-30T05:29:30;8.20;56.20
28087;DHT22;15392;48.912;8.380;2024-01-30T05:32:16;8.20;56.20
28087;DHT22;15392;48.912;8.380;2024-01-30T05:35:03;8.20;56.20
28087;DHT22;15392;48.912;8.380;2024-01-30T05:37:49;8.20;56.20
28087;DHT22;15392;48.912;8.380;2024-01-30T05:40:35;8.20;56.20
28087;DHT22;15392;48.912;8.380;2024-01-30T05:43:21;8.20;56.20
28087;DHT22;15392;48.912;8.380;2024-01-30T05:46:08;8.20;56.10
28087;DHT22;15392;48.912;8.380;2024-01-30T05:48:54;8.20;56.10
28087;DHT22;15392;48.912;8.380;2024-01-30T05:51:40;8.20;56.00
28087;DHT22;15392;48.912;8.380;2024-01-30T05:54:26;8.20;56.00
28087;DHT22;15392;48.912;8.380;2024-01-30T05:57:12;8.10;55.90
28087;DHT22;15392;48.912;8.380;2024-01-30T05:59:58;8.10;55.90
28087;DHT22;15392;48.912;8.380;2024-01-30T06:02:44;8.10;56.00
28087;DHT22;15392;48.912;8.380;2024-01-30T06:05:30;8.10;56.00
28087;DHT22;15392;48.912;8.380;2024-01-30T06:08:17;8.10;56.00
28087;DHT22;15392;48.912;8.380;2024-01-30T06:11:03;8.10;56.00
28087;DHT22;15392;48.912;8.380;2024-01-30T06:13:50;8.10;56.00
28087;DHT22;15392;48.912;8.380;2024-01-30T06:16:36;8.10;56.10
28087;DHT22;15392;48.912;8.380;2024-01-30T06:19:22;8.10;56.20
28087;DHT22;15392;48.912;8.380;2024-01-30T06:22:08;8.10;56.20
28087;DHT22;15392;48.912;8.380;2024-01-30T06:24:54;8.10;56.30
28087;DHT22;15392;48.912;8.380;2024-01-30T06:27:40;8.10;56.30
28087;DHT22;15392;48.912;8.380;2024-01-30T06:30:26;8.10;56.30
28087;DHT22;15392;48.912;8.380;2024-01-30T06:33:12;8.10;56.20
28087;DHT22;15392;48.912;8.380;2024-01-30T06:35:59;8.10;56.20
28087;DHT22;15392;48.912;8.380;2024-01-30T06:38:45;8.10;56.20
28087;DHT22;15392;48.912;8.380;2024-01-30T06:41:31;8.10;56.10
28087;DHT22;15392;48.912;8.380;2024-01-30T06:44:17;8.10;56.10
28087;DHT22;15392;48.912;8.380;2024-01-30T06:47:03;8.10;56.00
28087;DHT22;15392;48.912;8.380;2024-01-30T06:49:50;8.10;55.90
28087;DHT22;15392;48.912;8.380;2024-01-30T06:52:36;8.00;55.90
28087;DHT22;15392;48.912;8.380;2024-01-30T06:55:22;8.10;56.00
28087;DHT22;15392;48.912;8.380;2024-01-30T06:58:08;8.00;56.00
28087;DHT22;15392;48.912;8.380;2024-01-30T07:00:54;8.00;56.00
28087;DHT22;15392;48.912;8.380;2024-01-30T07:03:40;8.00;56.00
28087;DHT22;15392;48.912;8.380;2024-01-30T07:06:27;8.10;56.10
28087;DHT22;15392;48.912;8.380;2024-01-30T07:09:13;8.00;56.10
28087;DHT22;15392;48.912;8.380;2024-01-30T07:11:59;8.00;56.10
28087;DHT22;15392;48.912;8.380;2024-01-30T07:14:45;8.00;56.10
28087;DHT22;15392;48.912;8.380;2024-01-30T07:17:31;8.00;56.00
28087;DHT22;15392;48.912;8.380;2024-01-30T07:20:17;8.00;56.10
28087;DHT22;15392;48.912;8.380;2024-01-30T07:23:05;8.00;56.10
28087;DHT22;15392;48.912;8.380;2024-01-30T07:25:51;8.00;56.70
28087;DHT22;15392;48.912;8.380;2024-01-30T07:28:37;8.00;56.10
28087;DHT22;15392;48.912;8.380;2024-01-30T07:31:24;8.00;56.10
28087;DHT22;15392;48.912;8.380;2024-01-30T07:34:10;8.00;56.10
28087;DHT22;15392;48.912;8.380;2024-01-30T07:36:56;8.00;56.20
28087;DHT22;15392;48.912;8.380;2024-01-30T07:39:42;8.10;56.20
28087;DHT22;15392;48.912;8.380;2024-01-30T07:42:28;8.00;56.20
28087;DHT22;15392;48.912;8.380;2024-01-30T07:45:14;8.00;56.20
28087;DHT22;15392;48.912;8.380;2024-01-30T07:48:00;8.10;56.20
28087;DHT22;15392;48.912;8.380;2024-01-30T07:50:46;8.10;56.30
28087;DHT22;15392;48.912;8.380;2024-01-30T07:53:32;8.10;56.30
28087;DHT22;15392;48.912;8.380;2024-01-30T07:56:18;8.10;56.40
28087;DHT22;15392;48.912;8.380;2024-01-30T07:59:05;8.10;56.40
28087;DHT22;15392;48.912;8.380;2024-01-30T08:01:53;8.20;56.50
28087;DHT22;15392;48.912;8.380;2024-01-30T08:04:39;8.20;56.50
28087;DHT22;15392;48.912;8.380;2024-01-30T08:07:25;8.20;56.50
28087;DHT22;15392;48.912;8.380;2024-01-30T08:10:12;8.30;56.60
28087;DHT22;15392;48.912;8.380;2024-01-30T08:12:59;8.30;56.60
28087;DHT22;15392;48.912;8.380;2024-01-30T08:15:44;8.40;56.70
28087;DHT22;15392;48.912;8.380;2024-01-30T08:18:31;8.40;56.60
28087;DHT22;15392;48.912;8.380;2024-01-30T08:21:17;8.50;56.70
28087;DHT22;15392;48.912;8.380;2024-01-30T08:24:06;8.60;56.60
28087;DHT22;15392;48.912;8.380;2024-01-30T08:26:53;8.60;56.60
28087;DHT22;15392;48.912;8.380;2024-01-30T08:29:39;8.70;56.60
28087;DHT22;15392;48.912;8.380;2024-01-30T08:32:25;8.80;56.60
28087;DHT22;15392;48.912;8.380;2024-01-30T08:35:11;8.80;56.60
28087;DHT22;15392;48.912;8.380;2024-01-30T08:37:59;8.90;56.60
28087;DHT22;15392;48.912;8.380;2024-01-30T08:40:45;8.90;56.60
28087;DHT22;15392;48.912;8.380;2024-01-30T08:43:31;9.00;56.70
28087;DHT22;15392;48.912;8.380;2024-01-30T08:46:18;9.10;56.70
28087;DHT22;15392;48.912;8.380;2024-01-30T08:49:04;9.20;56.70
28087;DHT22;15392;48.912;8.380;2024-01-30T08:51:50;9.20;56.70
28087;DHT22;15392;48.912;8.380;2024-01-30T08:54:36;9.40;56.60
28087;DHT22;15392;48.912;8.380;2024-01-30T08:57:23;9.40;56.50
28087;DHT22;15392;48.912;8.380;2024-01-30T09:00:09;9.50;56.40
28087;DHT22;15392;48.912;8.380;2024-01-30T09:02:55;9.50;56.30
28087;DHT22;15392;48.912;8.380;2024-01-30T09:05:41;9.50;56.20
28087;DHT22;15392;48.912;8.380;2024-01-30T09:08:27;9.60;56.10
28087;DHT22;15392;48.912;8.380;2024-01-30T09:11:14;9.60;56.00
28087;DHT22;15392;48.912;8.380;2024-01-30T09:14:01;9.70;56.10
28087;DHT22;15392;48.912;8.380;2024-01-30T09:16:47;9.70;56.10
28087;DHT22;15392;48.912;8.380;2024-01-30T09:19:35;9.70;56.10
28087;DHT22;15392;48.912;8.380;2024-01-30T09:22:21;9.80;56.20
28087;DHT22;15392;48.912;8.380;2024-01-30T09:25:07;9.90;56.20
28087;DHT22;15392;48.912;8.380;2024-01-30T09:27:53;9.90;56.20
28087;DHT22;15392;48.912;8.380;2024-01-30T09:30:39;10.00;56.30
28087;DHT22;15392;48.912;8.380;2024-01-30T09:33:25;10.10;56.30
28087;DHT22;15392;48.912;8.380;2024-01-30T09:36:11;10.20;56.30
28087;DHT22;15392;48.912;8.380;2024-01-30T09:39:00;10.20;56.30
28087;DHT22;15392;48.912;8.380;2024-01-30T09:41:55;10.40;56.40
28087;DHT22;15392;48.912;8.380;2024-01-30T09:44:50;10.50;56.50
28087;DHT22;15392;48.912;8.380;2024-01-30T09:47:42;10.60;56.40
28087;DHT22;15392;48.912;8.380;2024-01-30T09:50:29;10.80;56.30
28087;DHT22;15392;48.912;8.380;2024-01-30T09:53:15;10.90;56.10
28087;DHT22;15392;48.912;8.380;2024-01-30T09:56:02;11.00;55.90
28087;DHT22;15392;48.912;8.380;2024-01-30T09:58:49;11.10;55.80
28087;DHT22;15392;48.912;8.380;2024-01-30T10:01:35;11.20;55.70
28087;DHT22;15392;48.912;8.380;2024-01-30T10:04:22;11.40;55.70
28087;DHT22;15392;48.912;8.380;2024-01-30T10:07:10;11.40;55.60
28087;DHT22;15392;48.912;8.380;2024-01-30T10:09:57;11.50;55.40
28087;DHT22;15392;48.912;8.380;2024-01-30T10:12:43;11.60;55.30
28087;DHT22;15392;48.912;8.380;2024-01-30T10:15:29;11.70;55.30
28087;DHT22;15392;48.912;8.380;2024-01-30T10:18:15;11.80;55.10
28087;DHT22;15392;48.912;8.380;2024-01-30T10:21:01;11.90;55.00
28087;DHT22;15392;48.912;8.380;2024-01-30T10:23:47;11.90;54.90
28087;DHT22;15392;48.912;8.380;2024-01-30T10:26:33;11.90;54.80
28087;DHT22;15392;48.912;8.380;2024-01-30T10:29:20;12.00;54.80
28087;DHT22;15392;48.912;8.380;2024-01-30T10:32:06;12.00;54.70
28087;DHT22;15392;48.912;8.380;2024-01-30T10:34:52;12.10;54.80
28087;DHT22;15392;48.912;8.380;2024-01-30T10:37:38;12.20;54.90
28087;DHT22;15392;48.912;8.380;2024-01-30T10:40:28;12.30;54.90
28087;DHT22;15392;48.912;8.380;2024-01-30T10:43:15;12.40;54.80
28087;DHT22;15392;48.912;8.380;2024-01-30T10:46:11;12.50;54.90
28087;DHT22;15392;48.912;8.380;2024-01-30T10:49:00;12.60;54.60
28087;DHT22;15392;48.912;8.380;2024-01-30T10:51:47;12.70;54.80
28087;DHT22;15392;48.912;8.380;2024-01-30T10:54:35;12.90;55.00
28087;DHT22;15392;48.912;8.380;2024-01-30T10:57:23;13.00;55.00
28087;DHT22;15392;48.912;8.380;2024-01-30T11:00:11;13.20;54.80
28087;DHT22;15392;48.912;8.380;2024-01-30T11:03:01;13.40;54.50
28087;DHT22;15392;48.912;8.380;2024-01-30T11:05:58;13.50;54.30
28087;DHT22;15392;48.912;8.380;2024-01-30T11:08:45;13.50;53.90
28087;DHT22;15392;48.912;8.380;2024-01-30T11:11:32;13.60;53.90
28087;DHT22;15392;48.912;8.380;2024-01-30T11:14:26;13.70;53.80
28087;DHT22;15392;48.912;8.380;2024-01-30T11:17:12;13.80;53.60
28087;DHT22;15392;48.912;8.380;2024-01-30T11:19:59;13.80;54.20
28087;DHT22;15392;48.912;8.380;2024-01-30T11:22:55;13.90;53.50
28087;DHT22;15392;48.912;8.380;2024-01-30T11:25:43;13.90;53.30
28087;DHT22;15392;48.912;8.380;2024-01-30T11:28:33;14.00;53.40
28087;DHT22;15392;48.912;8.380;2024-01-30T11:31:23;14.00;53.20
28087;DHT22;15392;48.912;8.380;2024-01-30T11:34:10;14.00;53.20
28087;DHT22;15392;48.912;8.380;2024-01-30T11:36:59;14.00;53.80
28087;DHT22;15392;48.912;8.380;2024-01-30T11:39:56;14.00;53.10
28087;DHT22;15392;48.912;8.380;2024-01-30T11:42:45;14.00;53.00
28087;DHT22;15392;48.912;8.380;2024-01-30T11:45:36;14.00;53.20
28087;DHT22;15392;48.912;8.380;2024-01-30T11:48:24;14.00;53.20
28087;DHT22;15392;48.912;8.380;2024-01-30T11:51:16;14.00;53.30
28087;DHT22;15392;48.912;8.380;2024-01-30T11:54:08;14.00;53.40
28087;DHT22;15392;48.912;8.380;2024-01-30T11:56:54;14.10;53.50
28087;DHT22;15392;48.912;8.380;2024-01-30T11:59:40;14.10;53.50
28087;DHT22;15392;48.912;8.380;2024-01-30T12:02:29;14.10;53.20
28087;DHT22;15392;48.912;8.380;2024-01-30T12:05:15;14.20;53.30
28087;DHT22;15392;48.912;8.380;2024-01-30T12:08:01;14.20;53.30
28087;DHT22;15392;48.912;8.380;2024-01-30T12:10:58;14.20;53.20
28087;DHT22;15392;48.912;8.380;2024-01-30T12:13:45;14.30;53.20
28087;DHT22;15392;48.912;8.380;2024-01-30T12:16:31;14.30;53.20
28087;DHT22;15392;48.912;8.380;2024-01-30T12:19:26;14.30;53.20
28087;DHT22;15392;48.912;8.380;2024-01-30T12:22:12;14.40;53.20
28087;DHT22;15392;48.912;8.380;2024-01-30T12:24:58;14.40;53.20
28087;DHT22;15392;48.912;8.380;2024-01-30T12:27:46;14.40;52.90
28087;DHT22;15392;48.912;8.380;2024-01-30T12:30:36;14.50;53.00
28087;DHT22;15392;48.912;8.380;2024-01-30T12:33:26;14.50;53.10
28087;DHT22;15392;48.912;8.380;2024-01-30T12:36:13;14.60;53.40
28087;DHT22;15392;48.912;8.380;2024-01-30T12:38:59;14.60;53.40
28087;DHT22;15392;48.912;8.380;2024-01-30T12:41:45;14.70;53.40
28087;DHT22;15392;48.912;8.380;2024-01-30T12:44:31;14.70;53.40
28087;DHT22;15392;48.912;8.380;2024-01-30T12:47:17;14.70;53.20
28087;DHT22;15392;48.912;8.380;2024-01-30T12:50:03;14.80;53.30
28087;DHT22;15392;48.912;8.380;2024-01-30T12:52:50;14.80;53.20
28087;DHT22;15392;48.912;8.380;2024-01-30T12:55:36;14.90;53.10
28087;DHT22;15392;48.912;8.380;2024-01-30T12:58:22;14.90;53.00
28087;DHT22;15392;48.912;8.380;2024-01-30T13:01:09;15.00;52.80
28087;DHT22;15392;48.912;8.380;2024-01-30T13:03:58;15.00;53.30
28087;DHT22;15392;48.912;8.380;2024-01-30T13:06:44;15.00;52.50
28087;DHT22;15392;48.912;8.380;2024-01-30T13:09:30;15.10;53.10
28087;DHT22;15392;48.912;8.380;2024-01-30T13:12:17;15.00;52.60
28087;DHT22;15392;48.912;8.380;2024-01-30T13:15:03;15.00;52.20
28087;DHT22;15392;48.912;8.380;2024-01-30T13:17:51;15.10;52.40
28087;DHT22;15392;48.912;8.380;2024-01-30T13:20:42;15.10;52.60
28087;DHT22;15392;48.912;8.380;2024-01-30T13:23:28;15.10;52.80
28087;DHT22;15392;48.912;8.380;2024-01-30T13:26:14;15.10;52.90
28087;DHT22;15392;48.912;8.380;2024-01-30T13:29:00;15.20;53.00
28087;DHT22;15392;48.912;8.380;2024-01-30T13:31:46;15.20;53.00
28087;DHT22;15392;48.912;8.380;2024-01-30T13:34:32;15.20;53.00
28087;DHT22;15392;48.912;8.380;2024-01-30T13:37:18;15.20;52.90
28087;DHT22;15392;48.912;8.380;2024-01-30T13:40:05;15.30;52.90
28087;DHT22;15392;48.912;8.380;2024-01-30T13:42:52;15.30;52.80
28087;DHT22;15392;48.912;8.380;2024-01-30T13:45:41;15.30;52.80
28087;DHT22;15392;48.912;8.380;2024-01-30T13:48:28;15.30;53.00
28087;DHT22;15392;48.912;8.380;2024-01-30T13:51:15;15.40;53.00
28087;DHT22;15392;48.912;8.380;2024-01-30T13:54:02;15.30;52.90
28087;DHT22;15392;48.912;8.380;2024-01-30T13:56:49;15.40;53.00
28087;DHT22;15392;48.912;8.380;2024-01-30T13:59:38;15.40;52.90
28087;DHT22;15392;48.912;8.380;2024-01-30T14:02:24;15.40;52.70
28087;DHT22;15392;48.912;8.380;2024-01-30T14:05:10;15.40;52.90
28087;DHT22;15392;48.912;8.380;2024-01-30T14:07:57;15.40;53.00
28087;DHT22;15392;48.912;8.380;2024-01-30T14:10:43;15.40;52.90
28087;DHT22;15392;48.912;8.380;2024-01-30T14:13:29;15.40;53.10
28087;DHT22;15392;48.912;8.380;2024-01-30T14:16:16;15.50;53.90
28087;DHT22;15392;48.912;8.380;2024-01-30T14:19:03;15.50;53.20
28087;DHT22;15392;48.912;8.380;2024-01-30T14:21:49;15.50;53.40
28087;DHT22;15392;48.912;8.380;2024-01-30T14:24:35;15.50;53.40
28087;DHT22;15392;48.912;8.380;2024-01-30T14:27:22;15.50;53.30
28087;DHT22;15392;48.912;8.380;2024-01-30T14:30:10;15.60;53.30
28087;DHT22;15392;48.912;8.380;2024-01-30T14:32:57;15.60;53.30
28087;DHT22;15392;48.912;8.380;2024-01-30T14:35:43;15.50;53.30
28087;DHT22;15392;48.912;8.380;2024-01-30T14:38:29;15.50;53.30
28087;DHT22;15392;48.912;8.380;2024-01-30T14:41:15;15.50;53.30
28087;DHT22;15392;48.912;8.380;2024-01-30T14:44:01;15.50;53.20
28087;DHT22;15392;48.912;8.380;2024-01-30T14:46:50;15.60;53.30
28087;DHT22;15392;48.912;8.380;2024-01-30T14:49:36;15.60;53.30
28087;DHT22;15392;48.912;8.380;2024-01-30T14:52:22;15.60;53.40
28087;DHT22;15392;48.912;8.380;2024-01-30T14:55:08;15.60;53.40
28087;DHT22;15392;48.912;8.380;2024-01-30T14:57:55;15.50;53.40
28087;DHT22;15392;48.912;8.380;2024-01-30T15:00:41;15.60;53.40
28087;DHT22;15392;48.912;8.380;2024-01-30T15:03:28;15.60;53.40
28087;DHT22;15392;48.912;8.380;2024-01-30T15:06:15;15.50;53.40
28087;DHT22;15392;48.912;8.380;2024-01-30T15:09:01;15.60;53.50
28087;DHT22;15392;48.912;8.380;2024-01-30T15:11:47;15.60;53.50
28087;DHT22;15392;48.912;8.380;2024-01-30T15:14:33;15.60;53.50
28087;DHT22;15392;48.912;8.380;2024-01-30T15:17:19;15.60;53.50
28087;DHT22;15392;48.912;8.380;2024-01-30T15:20:07;15.60;53.50
28087;DHT22;15392;48.912;8.380;2024-01-30T15:22:53;15.60;53.50
28087;DHT22;15392;48.912;8.380;2024-01-30T15:25:39;15.60;53.60
28087;DHT22;15392;48.912;8.380;2024-01-30T15:28:37;15.60;53.70
28087;DHT22;15392;48.912;8.380;2024-01-30T15:31:24;15.60;53.50
28087;DHT22;15392;48.912;8.380;2024-01-30T15:34:10;15.60;53.70
28087;DHT22;15392;48.912;8.380;2024-01-30T15:36:56;15.50;53.80
28087;DHT22;15392;48.912;8.380;2024-01-30T15:39:42;15.60;53.80
28087;DHT22;15392;48.912;8.380;2024-01-30T15:42:28;15.50;53.70
28087;DHT22;15392;48.912;8.380;2024-01-30T15:45:14;15.50;53.70
28087;DHT22;15392;48.912;8.380;2024-01-30T15:48:00;15.50;53.80
28087;DHT22;15392;48.912;8.380;2024-01-30T15:50:46;15.40;53.80
28087;DHT22;15392;48.912;8.380;2024-01-30T15:53:35;15.40;53.80
28087;DHT22;15392;48.912;8.380;2024-01-30T15:56:22;15.40;53.90
28087;DHT22;15392;48.912;8.380;2024-01-30T15:59:09;15.40;53.90
28087;DHT22;15392;48.912;8.380;2024-01-30T16:01:55;15.30;53.80
28087;DHT22;15392;48.912;8.380;2024-01-30T16:04:41;15.30;53.80
28087;DHT22;15392;48.912;8.380;2024-01-30T16:07:27;15.20;53.80
28087;DHT22;15392;48.912;8.380;2024-01-30T16:10:13;15.20;54.50
28087;DHT22;15392;48.912;8.380;2024-01-30T16:13:02;15.20;54.00
28087;DHT22;15392;48.912;8.380;2024-01-30T16:15:48;15.10;54.50
28087;DHT22;15392;48.912;8.380;2024-01-30T16:18:34;15.10;54.00
28087;DHT22;15392;48.912;8.380;2024-01-30T16:21:22;15.10;54.00
28087;DHT22;15392;48.912;8.380;2024-01-30T16:24:08;15.00;54.00
28087;DHT22;15392;48.912;8.380;2024-01-30T16:26:54;15.00;54.00
28087;DHT22;15392;48.912;8.380;2024-01-30T16:29:40;15.00;54.00
28087;DHT22;15392;48.912;8.380;2024-01-30T16:32:26;14.90;54.00
28087;DHT22;15392;48.912;8.380;2024-01-30T16:35:16;14.90;54.10
28087;DHT22;15392;48.912;8.380;2024-01-30T16:38:02;14.90;54.10
28087;DHT22;15392;48.912;8.380;2024-01-30T16:40:49;14.80;54.10
28087;DHT22;15392;48.912;8.380;2024-01-30T16:43:37;14.80;54.20
28087;DHT22;15392;48.912;8.380;2024-01-30T16:46:23;14.80;54.30
28087;DHT22;15392;48.912;8.380;2024-01-30T16:49:09;14.80;54.20
28087;DHT22;15392;48.912;8.380;2024-01-30T16:51:56;14.70;54.20
28087;DHT22;15392;48.912;8.380;2024-01-30T16:54:42;14.70;54.20
28087;DHT22;15392;48.912;8.380;2024-01-30T16:57:30;14.70;54.20
28087;DHT22;15392;48.912;8.380;2024-01-30T17:00:17;14.70;54.30
28087;DHT22;15392;48.912;8.380;2024-01-30T17:03:03;14.60;54.20
28087;DHT22;15392;48.912;8.380;2024-01-30T17:05:50;14.60;54.20
28087;DHT22;15392;48.912;8.380;2024-01-30T17:08:40;14.60;54.30
28087;DHT22;15392;48.912;8.380;2024-01-30T17:11:26;14.60;54.30
28087;DHT22;15392;48.912;8.380;2024-01-30T17:14:12;14.50;54.30
28087;DHT22;15392;48.912;8.380;2024-01-30T17:16:59;14.50;54.30
28087;DHT22;15392;48.912;8.380;2024-01-30T17:19:48;14.50;54.20
28087;DHT22;15392;48.912;8.380;2024-01-30T17:22:34;14.50;54.30
28087;DHT22;15392;48.912;8.380;2024-01-30T17:25:20;14.40;54.20
28087;DHT22;15392;48.912;8.380;2024-01-30T17:28:06;14.40;54.20
28087;DHT22;15392;48.912;8.380;2024-01-30T17:30:52;14.50;54.40
28087;DHT22;15392;48.912;8.380;2024-01-30T17:33:41;14.50;54.40
28087;DHT22;15392;48.912;8.380;2024-01-30T17:36:27;14.40;54.40
28087;DHT22;15392;48.912;8.380;2024-01-30T17:39:13;14.40;54.40
28087;DHT22;15392;48.912;8.380;2024-01-30T17:41:59;14.40;54.50
28087;DHT22;15392;48.912;8.380;2024-01-30T17:44:45;14.40;54.50